Cologne, New Jersey
Current Conditions -  °F | °C
As of 12:54 AM on Saturday 25 Oct 2014 (Local Time) from KACY Reporting Station
Clear Clear  
Wind Chill: 52°   Ceiling: Unl
Heat Index: 52°   Visibility: 10mi
Dew Point: 40°   Wind: 6mph
Humidity: 63%   Direction: 280°W
Pressure: 29.88"   Gusts: NA
Location:  39.5°N, 74.61°W
Report Text: KACY 250454Z 28005KT 10SM CLR 11/04 A2988 RMK AO2 SLP118 T01110044 402000072
Loading
Personal Weather Stations






























Interactive Weather Map
Tropical Storm Tracking
New forecast layout! Learn more

10-Day Weather Forecast

Advertisements
Track Severe Weather on mobile